KHLB

Details ICAO KHLB
Name HILLENBRAND INDUSTRIES
Region United States
Timezone America/Indiana/Indianapolis (UTC-5.0)
Plans Departing 0
Arriving 0
Stats Elevation 973 ft / 297 m (AMSL)
Location 39.344518° -85.258425°
Runways 1
Magnetic Variation 5.345° W
Sunrise 2017-12-12 12:53:13 UTC / 2017-12-12 07:53:13 Local
Sunset 2017-12-12 22:19:23 UTC / 2017-12-12 17:19:23 Local
Advertisement - Login to hide

Runways

ID Width Length Bearing (true) Bearing (mag) Surface Threshold Offset Overrun Length
18 100 ft / 30 m 4,947 ft / 1,508 m 179.86° 185.21° Asphalt 500 ft / 152 m 0 ft / 0 m
36 100 ft / 30 m 4,947 ft / 1,508 m 359.86° 5.21° Asphalt 500 ft / 152 m 0 ft / 0 m

Map

Weather


0- 5 10 15 20 25 30 35+ Temperature / ° C

Clouds and Precipitation
Forecast for 2017-12-13 00:00 UTC. Updated 43 minutes ago

Ground ~20,000 ft ~40,000 ft Winds

METAR

KHLB 121955Z AUTO 30010G16KT 270V350 10SM FEW026 BKN040 BKN050 M04/M13 A2996 RMK A01

TAF

Not found

Frequencies

Unicom 122.72 MHz UNICOM
Warning: Do not use this data for real-world aviation or navigation. No guarantee of current accuracy is given.